Hlavní strana
METAR-TAF:

METAR-TAF

Letiště :

Rabat, Maroko

zeměpisná šířka: 34-03N, zeměpisná délka: 006-46W, výška: 84 m

Aktuální stav počasí

Zpráva byla vytvořena před 40 minutami, v 20:30 UTC
Západní vítr 6 kt
Teplota 22°C
Vlhkost vzduchu 78%
Tlak 1014 hPa
Viditelnost: 8000 m
Skoro jasno ve výšce 1300 ft
Polojasno ve výšce 2000 ft

METAR: GMME 172030Z 26006KT 8000 FEW013 SCT020 22/18 Q1014 NOSIG

Čas: 22:10 (21:10 UTC)

Předpověď počasí

Zpráva byla vytvořena před 4 hodinami a 10 minutami, v 17:00 UTC
Předpověď platná od 17 v 18 UTC do 18 v 24 UTC
Severoseverozápadní vítr 10 kt
Viditelnost 10 km a více
Polojasno ve výšce 2000 ft
Dočasný
od 17 v 18 UTC do 18 v 06 UTC
Jihozápadní vítr 8 kt
Viditelnost: 6000 m
Polojasno ve výšce 1200 ft
Polojasno ve výšce 1600 ft

TAF: GMME 171700Z 1718/1824 34010KT 9999 SCT020 TEMPO 1718/1806 22008KT 6000 SCT012 SCT016

Stav a předpovědi počasí z více než 4 000 letišť (zprávy METAR a TAF).

Červené a žluté tečky na mapě představují dostupné meteorologické stanice.

Když kurzor umístíte na tečku, zobrazí se název stanice.

Pak kliknutím zobrazíte stav a předpověď počasí.

Chcete-li změnit mapu, kliknutím na zelené tlačítko se znaménkem +mapu přiblížíte, kliknutím na zelené tlačítko se znaménkem – mapu oddálíte a kliknutím na zelené šipky přejdete na sousední mapy.


METAR-TAF: